createdAt,value
2022-08-18T00:01:04.042Z,8.43
2022-08-18T00:03:57.394Z,6.82
2022-08-18T00:06:16.549Z,9.80
2022-08-18T00:08:42.751Z,6.03
2022-08-18T00:11:08.968Z,9.02
2022-08-18T00:13:35.225Z,10.57
2022-08-18T00:16:01.606Z,6.13
2022-08-18T00:18:27.917Z,7.47
2022-08-18T00:20:54.172Z,5.72
2022-08-18T00:23:20.392Z,6.40
2022-08-18T00:25:46.592Z,5.28
2022-08-18T00:28:12.845Z,6.93
2022-08-18T00:30:39.104Z,5.70
2022-08-18T00:33:05.298Z,6.60
2022-08-18T00:35:31.507Z,7.28
2022-08-18T00:37:57.746Z,7.72
2022-08-18T00:40:24.141Z,4.40
2022-08-18T00:42:50.627Z,5.35
2022-08-18T00:45:17.008Z,5.65
2022-08-18T00:47:43.460Z,5.47
2022-08-18T00:50:09.669Z,5.50
2022-08-18T00:52:41.431Z,6.25
2022-08-18T00:55:07.663Z,6.28
2022-08-18T00:57:33.922Z,7.30
2022-08-18T01:00:00.212Z,7.78
2022-08-18T01:02:26.505Z,10.77
2022-08-18T01:04:52.762Z,6.97
2022-08-18T01:07:19.131Z,6.00
2022-08-18T01:09:45.407Z,5.07
2022-08-18T01:12:45.199Z,5.65
2022-08-18T01:14:57.841Z,6.22
2022-08-18T01:17:24.140Z,5.60
2022-08-18T01:19:50.377Z,5.07
2022-08-18T01:22:16.624Z,7.18
2022-08-18T01:24:42.839Z,7.38
2022-08-18T01:27:09.046Z,5.35
2022-08-18T01:29:36.024Z,5.10
2022-08-18T01:32:04.355Z,6.53
2022-08-18T01:34:30.569Z,6.45
2022-08-18T01:36:56.806Z,4.90
2022-08-18T01:41:21.930Z,5.00
2022-08-18T01:42:09.306Z,7.07
2022-08-18T01:44:35.627Z,5.07
2022-08-18T01:47:01.864Z,6.30
2022-08-18T01:49:28.123Z,6.93
2022-08-18T01:51:54.343Z,5.82
2022-08-18T01:54:20.577Z,4.70
2022-08-18T01:56:46.856Z,6.07
2022-08-18T01:59:13.071Z,6.88
2022-08-18T02:01:43.344Z,6.60
2022-08-18T02:04:34.442Z,5.93
2022-08-18T02:07:01.384Z,4.38
2022-08-18T02:09:30.462Z,6.13
2022-08-18T02:11:56.607Z,5.28
2022-08-18T02:14:25.309Z,6.03
2022-08-18T02:16:53.712Z,4.78
2022-08-18T02:19:25.621Z,5.38
2022-08-18T02:21:51.806Z,5.80
2022-08-18T02:24:17.983Z,6.57
2022-08-18T02:26:44.160Z,5.22
2022-08-18T02:29:10.334Z,6.82
2022-08-18T02:31:36.485Z,4.65
2022-08-18T02:34:02.658Z,4.75
2022-08-18T02:36:28.802Z,5.63
2022-08-18T02:38:59.937Z,5.78
2022-08-18T02:41:26.312Z,5.20
2022-08-18T02:43:55.617Z,5.72
2022-08-18T02:46:21.893Z,6.38
2022-08-18T02:48:49.738Z,6.47
2022-08-18T02:51:15.911Z,6.97
2022-08-18T02:53:42.087Z,4.95
2022-08-18T02:56:08.246Z,6.80
2022-08-18T02:58:34.429Z,5.88
2022-08-18T03:01:00.684Z,7.55
2022-08-18T03:03:26.879Z,6.53
2022-08-18T03:05:53.035Z,5.90
2022-08-18T03:08:19.210Z,6.40
2022-08-18T03:10:45.388Z,5.32
2022-08-18T03:13:11.565Z,6.22
2022-08-18T03:15:37.747Z,6.32
2022-08-18T03:18:03.919Z,4.45
2022-08-18T03:20:31.427Z,5.88
2022-08-18T03:22:57.860Z,5.63
2022-08-18T03:25:24.671Z,7.88
2022-08-18T03:27:50.964Z,4.13
2022-08-18T03:30:17.234Z,5.28
2022-08-18T03:32:45.824Z,5.43
2022-08-18T03:35:12.261Z,6.72
2022-08-18T03:37:38.424Z,5.72
2022-08-18T03:40:04.663Z,7.28
2022-08-18T03:42:30.887Z,5.45
2022-08-18T03:44:57.059Z,4.93
2022-08-18T03:47:23.228Z,6.82
2022-08-18T03:49:49.382Z,5.47
2022-08-18T03:52:15.523Z,5.68
2022-08-18T03:54:41.730Z,5.88
2022-08-18T03:57:07.895Z,5.80
2022-08-18T03:59:34.045Z,6.05
2022-08-18T04:02:00.339Z,6.25
2022-08-18T04:04:26.666Z,7.63
2022-08-18T04:06:52.907Z,5.32
2022-08-18T04:09:19.054Z,8.27
2022-08-18T04:11:45.199Z,6.88
2022-08-18T04:14:11.379Z,8.00
2022-08-18T04:16:37.554Z,5.88
2022-08-18T04:19:03.743Z,8.00
2022-08-18T04:21:29.936Z,9.23
2022-08-18T04:23:56.114Z,7.93
2022-08-18T04:26:22.265Z,10.45
2022-08-18T04:28:48.413Z,16.55
2022-08-18T04:31:14.582Z,8.05
2022-08-18T04:33:40.746Z,7.88
2022-08-18T04:36:08.325Z,10.35
2022-08-18T04:38:34.507Z,8.27
2022-08-18T04:41:00.671Z,8.65
2022-08-18T04:43:26.846Z,7.25
2022-08-18T04:45:53.061Z,6.72
2022-08-18T04:48:19.229Z,12.32
2022-08-18T04:50:48.976Z,9.23
2022-08-18T04:53:15.197Z,7.07
2022-08-18T04:55:41.369Z,11.98
2022-08-18T04:58:07.542Z,9.88
2022-08-18T05:00:33.707Z,7.70
2022-08-18T05:02:59.870Z,11.40
2022-08-18T05:05:26.032Z,9.02
2022-08-18T05:07:52.406Z,8.30
2022-08-18T05:10:18.768Z,9.45
2022-08-18T05:12:44.933Z,7.70
2022-08-18T05:15:11.129Z,11.93
2022-08-18T05:17:37.295Z,8.88
2022-08-18T05:20:05.678Z,9.55
2022-08-18T05:22:32.267Z,9.88
2022-08-18T05:24:58.433Z,10.00
2022-08-18T05:27:24.604Z,6.90
2022-08-18T05:29:51.754Z,8.55
2022-08-18T05:32:30.461Z,11.57
2022-08-18T05:35:04.299Z,7.80
2022-08-18T05:37:30.481Z,9.65
2022-08-18T05:40:02.864Z,8.40
2022-08-18T05:42:31.421Z,11.85
2022-08-18T05:44:57.583Z,9.65
2022-08-18T05:47:23.768Z,9.30
2022-08-18T05:49:49.955Z,7.60
2022-08-18T05:52:16.107Z,10.20
2022-08-18T05:54:43.663Z,9.63
2022-08-18T05:57:09.866Z,12.00
2022-08-18T05:59:36.036Z,8.05
2022-08-18T06:02:02.216Z,8.13
2022-08-18T06:04:28.465Z,10.75
2022-08-18T06:06:54.736Z,8.57
2022-08-18T06:09:20.930Z,9.23
2022-08-18T06:11:47.095Z,8.35
2022-08-18T06:14:13.276Z,8.63
2022-08-18T06:16:39.474Z,12.82
2022-08-18T06:19:06.064Z,10.10
2022-08-18T06:21:36.865Z,10.63
2022-08-18T06:24:05.071Z,9.40
2022-08-18T06:26:31.865Z,9.70
2022-08-18T06:28:58.115Z,10.25
2022-08-18T06:31:29.527Z,10.48
2022-08-18T06:33:55.909Z,11.70
2022-08-18T06:36:22.106Z,8.88
2022-08-18T06:38:48.510Z,8.90
2022-08-18T06:41:42.556Z,12.57
2022-08-18T06:44:01.107Z,9.68
2022-08-18T06:46:27.389Z,12.23
2022-08-18T06:48:53.620Z,10.93
2022-08-18T06:51:19.773Z,12.20
2022-08-18T06:53:45.931Z,11.93
2022-08-18T06:56:26.265Z,11.65
2022-08-18T06:58:53.358Z,10.85
2022-08-18T07:01:19.665Z,9.55
2022-08-18T07:03:45.959Z,11.75
2022-08-18T07:06:12.144Z,12.02
2022-08-18T07:08:38.306Z,15.32
2022-08-18T07:11:04.474Z,12.75
2022-08-18T07:13:30.631Z,11.88
2022-08-18T07:15:56.912Z,12.30
2022-08-18T07:18:23.116Z,10.85
2022-08-18T07:20:49.290Z,11.75
2022-08-18T07:23:15.481Z,10.48
2022-08-18T07:25:41.678Z,10.80
2022-08-18T07:28:07.872Z,11.75
2022-08-18T07:30:34.033Z,12.57
2022-08-18T07:33:00.202Z,11.25
2022-08-18T07:35:26.389Z,11.00
2022-08-18T07:37:52.673Z,13.38
2022-08-18T07:40:19.042Z,10.35
2022-08-18T07:42:56.795Z,12.13
2022-08-18T07:45:27.913Z,11.20
2022-08-18T07:47:54.306Z,11.63
2022-08-18T07:50:54.998Z,13.30
2022-08-18T07:53:06.797Z,12.38
2022-08-18T07:55:33.624Z,12.07
2022-08-18T07:57:59.821Z,14.35
2022-08-18T08:00:57.025Z,12.55
2022-08-18T08:03:12.257Z,12.73
2022-08-18T08:05:38.437Z,12.82
2022-08-18T08:08:04.654Z,12.18
2022-08-18T08:10:31.476Z,13.05
2022-08-18T08:13:08.291Z,12.07
2022-08-18T08:15:35.281Z,14.43
2022-08-18T08:18:01.459Z,11.77
2022-08-18T08:20:32.561Z,12.75
2022-08-18T08:22:59.370Z,14.73
2022-08-18T08:28:11.759Z,11.80
2022-08-18T08:30:37.928Z,11.85
2022-08-18T08:33:08.441Z,13.15
2022-08-18T08:35:48.619Z,11.98
2022-08-18T08:38:39.335Z,13.93
2022-08-18T08:41:02.913Z,13.80
2022-08-18T08:43:29.073Z,10.48
2022-08-18T08:45:55.285Z,13.02
2022-08-18T08:48:21.443Z,13.40
2022-08-18T08:50:47.611Z,19.98
2022-08-18T08:53:13.815Z,14.65
2022-08-18T08:55:39.988Z,15.57
2022-08-18T08:58:06.190Z,15.23
2022-08-18T09:00:32.353Z,17.75
2022-08-18T09:02:58.587Z,14.73
2022-08-18T09:05:24.929Z,13.80
2022-08-18T09:07:52.485Z,13.52
2022-08-18T09:13:08.841Z,14.70
2022-08-18T09:15:34.998Z,19.38
2022-08-18T09:18:02.431Z,23.70
2022-08-18T09:20:28.587Z,22.67
2022-08-18T09:22:54.807Z,21.55
2022-08-18T09:25:20.991Z,19.25
2022-08-18T09:28:10.299Z,21.98
2022-08-18T09:30:33.406Z,28.55
2022-08-18T09:32:59.590Z,22.33
2022-08-18T09:35:25.817Z,21.83
2022-08-18T09:37:53.035Z,24.40
2022-08-18T09:40:26.053Z,22.90
2022-08-18T09:43:05.464Z,25.60
2022-08-18T09:45:35.267Z,23.90
2022-08-18T09:48:03.402Z,22.33
2022-08-18T09:50:30.333Z,24.83
2022-08-18T09:52:56.723Z,27.88
2022-08-18T09:55:24.107Z,24.80
2022-08-18T09:57:50.348Z,26.10
2022-08-18T10:00:16.524Z,24.88
2022-08-18T10:02:48.766Z,24.13
2022-08-18T10:05:15.762Z,25.15
2022-08-18T10:11:02.273Z,19.35
2022-08-18T10:13:14.317Z,18.70
2022-08-18T10:15:40.478Z,22.63
2022-08-18T10:18:06.654Z,22.13
2022-08-18T10:20:33.303Z,34.00
2022-08-18T10:22:59.486Z,19.48
2022-08-18T10:25:26.575Z,20.65
2022-08-18T10:27:52.742Z,19.38
2022-08-18T10:30:18.902Z,28.90
2022-08-18T10:32:54.197Z,26.30
2022-08-18T10:35:23.292Z,24.90
2022-08-18T10:37:53.303Z,25.85
2022-08-18T10:40:21.383Z,23.27
2022-08-18T10:42:47.683Z,25.55
2022-08-18T10:45:22.034Z,24.33
2022-08-18T10:48:00.109Z,23.52
2022-08-18T10:50:26.305Z,25.05
2022-08-18T10:53:24.312Z,21.15
2022-08-18T10:55:48.971Z,25.00
2022-08-18T10:58:16.175Z,26.50
2022-08-18T11:00:42.384Z,22.15
2022-08-18T11:03:40.077Z,22.58
2022-08-18T11:05:55.129Z,22.27
2022-08-18T11:08:21.326Z,24.33
2022-08-18T11:11:06.475Z,22.95
2022-08-18T11:13:34.192Z,20.35
2022-08-18T11:16:02.301Z,20.65
2022-08-18T11:18:28.483Z,21.38
2022-08-18T11:20:56.434Z,20.02
2022-08-18T11:23:22.628Z,21.85
2022-08-18T11:25:49.697Z,18.65
2022-08-18T11:28:15.963Z,18.67
2022-08-18T11:30:44.678Z,20.98
2022-08-18T11:33:12.676Z,26.38
2022-08-18T11:35:49.114Z,26.58
2022-08-18T11:38:20.960Z,23.58
2022-08-18T11:43:41.067Z,20.00
2022-08-18T11:46:08.721Z,24.27
2022-08-18T11:48:49.581Z,19.80
2022-08-18T11:51:23.348Z,17.75
2022-08-18T11:56:38.101Z,18.83
2022-08-18T11:59:04.857Z,16.55
2022-08-18T12:01:31.083Z,20.30
2022-08-18T12:04:00.115Z,19.73
2022-08-18T12:06:26.851Z,18.48
2022-08-18T12:08:58.942Z,19.50
2022-08-18T12:14:30.672Z,19.27
2022-08-18T12:16:57.756Z,18.38
2022-08-18T12:19:25.877Z,14.35
2022-08-18T12:21:53.099Z,20.25
2022-08-18T12:24:20.793Z,17.75
2022-08-18T12:26:54.305Z,18.48
2022-08-18T12:29:22.349Z,18.17
2022-08-18T12:31:52.562Z,15.63
2022-08-18T12:34:24.966Z,17.27
2022-08-18T12:36:52.685Z,15.70
2022-08-18T12:39:18.900Z,14.13
2022-08-18T12:41:46.661Z,14.00
2022-08-18T12:44:13.342Z,18.27
2022-08-18T12:46:39.821Z,14.63
2022-08-18T12:49:09.116Z,11.38
2022-08-18T12:51:35.279Z,12.55
2022-08-18T12:54:01.726Z,10.80
2022-08-18T12:56:29.584Z,11.02
2022-08-18T12:58:55.850Z,9.73
2022-08-18T13:01:23.628Z,13.13
2022-08-18T13:03:52.782Z,10.20
2022-08-18T13:06:36.097Z,9.20
2022-08-18T13:09:02.646Z,9.52
2022-08-18T13:11:42.445Z,9.07
2022-08-18T13:14:09.165Z,9.20
2022-08-18T13:22:00.427Z,11.00
2022-08-18T13:24:26.673Z,9.85
2022-08-18T13:26:52.892Z,10.18
2022-08-18T13:29:20.254Z,9.75
2022-08-18T13:31:57.574Z,11.65
2022-08-18T13:34:25.099Z,12.95
2022-08-18T13:36:51.701Z,13.32
2022-08-18T13:39:21.837Z,13.20
2022-08-18T13:41:48.920Z,13.63
2022-08-18T13:44:18.865Z,11.65
2022-08-18T13:46:46.190Z,13.60
2022-08-18T13:49:12.531Z,16.63
2022-08-18T13:54:30.786Z,13.80
2022-08-18T13:56:57.552Z,12.75
2022-08-18T13:59:24.437Z,15.73
2022-08-18T14:01:55.015Z,15.38
2022-08-18T14:06:51.436Z,12.32
2022-08-18T14:09:36.377Z,13.38
2022-08-18T14:14:44.176Z,13.33
2022-08-18T14:17:10.768Z,11.00
2022-08-18T14:19:38.467Z,13.30
2022-08-18T14:22:06.077Z,16.33
2022-08-18T14:24:32.350Z,18.35
2022-08-18T14:27:03.510Z,14.10
2022-08-18T14:29:46.268Z,13.68
2022-08-18T14:32:18.244Z,18.83
2022-08-18T14:34:50.823Z,17.75
2022-08-18T14:37:17.420Z,18.98
2022-08-18T14:39:48.028Z,15.98
2022-08-18T14:42:16.703Z,17.20
2022-08-18T14:44:47.003Z,18.05
2022-08-18T14:47:24.232Z,18.13
2022-08-18T14:49:50.924Z,18.10
2022-08-18T14:52:17.159Z,19.30
2022-08-18T14:54:46.365Z,15.57
2022-08-18T14:57:17.521Z,19.25
2022-08-18T14:59:43.905Z,18.23
2022-08-18T15:02:11.242Z,17.38
2022-08-18T15:04:56.015Z,16.15
2022-08-18T15:07:24.223Z,14.80
2022-08-18T15:09:50.393Z,14.88
2022-08-18T15:12:36.609Z,14.80
2022-08-18T15:15:04.349Z,13.40
2022-08-18T15:17:30.868Z,13.75
2022-08-18T15:20:01.401Z,13.70
2022-08-18T15:22:27.979Z,12.25
2022-08-18T15:24:58.755Z,10.88
2022-08-18T15:27:42.918Z,12.40
2022-08-18T15:30:09.645Z,14.93
2022-08-18T15:32:37.555Z,13.73
2022-08-18T15:35:11.492Z,15.02
2022-08-18T15:37:38.161Z,16.00
2022-08-18T15:40:10.859Z,14.00
2022-08-18T15:42:57.004Z,18.42
2022-08-18T15:45:27.433Z,16.05
2022-08-18T15:48:01.612Z,11.18
2022-08-18T15:50:27.836Z,10.98
2022-08-18T15:52:55.662Z,12.40
2022-08-18T15:55:21.830Z,12.13
2022-08-18T15:57:50.593Z,15.63
2022-08-18T16:00:24.872Z,12.15
2022-08-18T16:02:52.171Z,13.52
2022-08-18T16:05:18.430Z,17.25
2022-08-18T16:07:47.773Z,12.15
2022-08-18T16:10:13.988Z,13.20
2022-08-18T16:12:46.016Z,14.00
2022-08-18T16:17:39.666Z,10.50
2022-08-18T16:20:07.620Z,11.02
2022-08-18T16:22:34.687Z,10.93
2022-08-18T16:25:00.911Z,10.10
2022-08-18T16:27:46.937Z,10.63
2022-08-18T16:30:33.484Z,9.32
2022-08-18T16:35:45.988Z,9.25
2022-08-18T16:49:00.016Z,12.15
2022-08-18T16:51:26.212Z,9.55
2022-08-18T16:53:52.375Z,8.57
2022-08-18T16:56:18.663Z,9.43
2022-08-18T16:58:44.881Z,10.43
2022-08-18T17:01:15.624Z,9.95
2022-08-18T17:03:45.400Z,10.63
2022-08-18T17:06:11.658Z,8.98
2022-08-18T17:08:39.755Z,11.18
2022-08-18T17:11:08.386Z,11.27
2022-08-18T17:13:44.998Z,7.80
2022-08-18T17:20:26.472Z,8.20
2022-08-18T17:21:42.695Z,8.85
2022-08-18T17:24:18.634Z,8.90
2022-08-18T17:27:11.962Z,8.20
2022-08-18T17:29:54.857Z,10.88
2022-08-18T17:35:10.378Z,8.15
2022-08-18T17:37:36.578Z,7.68
2022-08-18T17:40:03.145Z,9.32
2022-08-18T17:42:29.381Z,13.60
2022-08-18T17:44:55.725Z,9.50
2022-08-18T17:47:22.351Z,8.82
2022-08-18T17:49:48.543Z,10.57
2022-08-18T17:52:24.892Z,10.27
2022-08-18T17:54:51.105Z,8.25
2022-08-18T17:57:17.352Z,8.98
2022-08-18T17:59:51.224Z,7.38
2022-08-18T18:02:29.640Z,10.23
2022-08-18T18:04:56.778Z,7.20
2022-08-18T18:07:22.954Z,7.93
2022-08-18T18:09:49.823Z,7.82
2022-08-18T18:12:20.308Z,6.55
2022-08-18T18:14:46.507Z,6.97
2022-08-18T18:17:14.369Z,8.45
2022-08-18T18:19:40.774Z,6.88
2022-08-18T18:22:06.986Z,7.13
2022-08-18T18:24:33.204Z,7.45
2022-08-18T18:26:59.419Z,7.72
2022-08-18T18:29:29.163Z,9.98
2022-08-18T18:31:58.200Z,10.43
2022-08-18T18:34:27.903Z,9.70
2022-08-18T18:36:54.363Z,9.35
2022-08-18T18:39:20.555Z,11.02
2022-08-18T18:41:46.746Z,13.52
2022-08-18T18:44:12.962Z,9.52
2022-08-18T18:46:39.195Z,10.93
2022-08-18T18:49:05.455Z,13.73
2022-08-18T18:51:33.869Z,11.30
2022-08-18T18:54:16.654Z,14.35
2022-08-18T18:56:42.877Z,11.13
2022-08-18T18:59:09.067Z,11.85
2022-08-18T19:01:43.455Z,12.55
2022-08-18T19:04:09.672Z,11.88
2022-08-18T19:06:46.671Z,12.65
2022-08-18T19:09:17.101Z,14.20
2022-08-18T19:11:45.061Z,11.07
2022-08-18T19:14:11.241Z,14.57
2022-08-18T19:16:37.453Z,10.80
2022-08-18T19:19:35.513Z,11.55
2022-08-18T19:22:03.620Z,11.70
2022-08-18T19:24:32.261Z,10.27
2022-08-18T19:26:58.520Z,15.48
2022-08-18T19:29:24.992Z,10.60
2022-08-18T19:31:51.221Z,15.65
2022-08-18T19:34:18.619Z,12.40
2022-08-18T19:36:48.969Z,10.70
2022-08-18T19:39:15.135Z,14.93
2022-08-18T19:41:41.420Z,11.18
2022-08-18T19:44:07.619Z,11.50
2022-08-18T19:46:33.849Z,12.00
2022-08-18T19:49:00.028Z,13.38
2022-08-18T19:51:26.256Z,12.45
2022-08-18T19:53:52.962Z,13.45
2022-08-18T19:56:21.525Z,13.15
2022-08-18T19:59:04.697Z,14.55
2022-08-18T20:01:34.299Z,13.32
2022-08-18T20:04:17.253Z,10.98
2022-08-18T20:06:43.445Z,15.30
2022-08-18T20:09:10.605Z,12.25
2022-08-18T20:11:41.799Z,16.33
2022-08-18T20:14:08.476Z,16.73
2022-08-18T20:16:43.523Z,12.23
2022-08-18T20:19:16.225Z,12.30
2022-08-18T20:21:42.711Z,12.30
2022-08-18T20:24:08.888Z,12.25
2022-08-18T20:26:35.096Z,12.13
2022-08-18T20:29:01.320Z,10.70
2022-08-18T20:31:27.526Z,12.15
2022-08-18T20:33:53.734Z,12.00
2022-08-18T20:36:20.661Z,11.38
2022-08-18T20:38:46.848Z,12.00
2022-08-18T20:41:14.181Z,13.05
2022-08-18T20:43:40.373Z,12.38
2022-08-18T20:46:06.577Z,12.10
2022-08-18T20:48:32.746Z,14.02
2022-08-18T20:50:58.971Z,13.82
2022-08-18T20:53:25.178Z,13.48
2022-08-18T20:55:53.067Z,14.60
2022-08-18T20:58:19.579Z,13.93
2022-08-18T21:00:45.822Z,15.27
2022-08-18T21:03:12.031Z,12.95
2022-08-18T21:05:38.228Z,13.15
2022-08-18T21:08:04.457Z,11.10
2022-08-18T21:10:30.625Z,12.35
2022-08-18T21:12:57.038Z,11.93
2022-08-18T21:15:23.421Z,13.80
2022-08-18T21:17:51.995Z,13.80
2022-08-18T21:20:20.122Z,15.48
2022-08-18T21:22:46.358Z,12.52
2022-08-18T21:25:12.607Z,13.10
2022-08-18T21:27:38.802Z,14.10
2022-08-18T21:30:04.987Z,14.48
2022-08-18T21:32:31.168Z,13.35
2022-08-18T21:34:57.363Z,12.27
2022-08-18T21:37:23.574Z,13.18
2022-08-18T21:39:49.810Z,14.85
2022-08-18T21:42:16.023Z,16.38
2022-08-18T21:44:42.235Z,19.15
2022-08-18T21:47:08.413Z,21.83
2022-08-18T21:49:34.603Z,15.90
2022-08-18T21:52:00.767Z,18.20
2022-08-18T21:54:26.976Z,17.52
2022-08-18T21:56:53.171Z,14.70
2022-08-18T21:59:19.344Z,14.82
2022-08-18T22:01:45.588Z,13.82
2022-08-18T22:04:11.806Z,17.45
2022-08-18T22:06:37.990Z,14.70
2022-08-18T22:09:04.175Z,14.43
2022-08-18T22:11:44.189Z,16.48
2022-08-18T22:14:16.537Z,16.45
2022-08-18T22:16:43.690Z,15.40
2022-08-18T22:19:09.873Z,15.88
2022-08-18T22:21:36.046Z,14.63
2022-08-18T22:24:02.557Z,13.57
2022-08-18T22:26:28.726Z,15.70
2022-08-18T22:28:55.061Z,14.80
2022-08-18T22:31:21.632Z,15.13
2022-08-18T22:33:47.824Z,17.02
2022-08-18T22:36:14.028Z,16.42
2022-08-18T22:38:40.179Z,20.55
2022-08-18T22:41:06.342Z,18.50
2022-08-18T22:43:32.542Z,17.23
2022-08-18T22:45:58.710Z,17.45
2022-08-18T22:48:24.908Z,16.55
2022-08-18T22:50:51.084Z,18.73
2022-08-18T22:53:17.282Z,17.83
2022-08-18T22:55:43.476Z,12.80
2022-08-18T22:58:11.279Z,17.02
2022-08-18T23:00:37.474Z,18.73
2022-08-18T23:03:05.929Z,16.40
2022-08-18T23:05:32.127Z,18.33
2022-08-18T23:07:58.314Z,18.98
2022-08-18T23:10:24.477Z,18.67
2022-08-18T23:12:50.734Z,17.60
2022-08-18T23:15:17.017Z,16.75
2022-08-18T23:17:43.208Z,16.75
2022-08-18T23:20:09.464Z,18.05
2022-08-18T23:22:37.797Z,20.23
2022-08-18T23:25:08.805Z,15.73
2022-08-18T23:27:35.624Z,16.35
2022-08-18T23:30:02.360Z,20.10
2022-08-18T23:32:30.134Z,16.58
